Airfield :
LOGIN :

Register | Disclaimer

   EN    FR    IT 

 










Legend :    VFR   Marginal VFR   IFR   Intensive IFR   Very Intensive IFR
Visi :
Ceiling :
>= 8 km
>= 3000ft
5 to 8 km
1000 to 3000 ft
1500m to 5 km
500 to 1000 ft
800 to 1500m
200 to 500 ft
< 800m
< 200 ft
Symbols :   Thunderstorms  Fog  Heavy snow  Heavy precipitations  Wind > 20 kt
SIGMETs :     Misc.  Thunderstorms  Icing  Turbulence  Mountain Waves  Volcanic Ashes






- Airport Elevation : 46 ft
- IATA code : SNN


EINN - Shannon

CURRENT METAR :
  • 170300Z 32003KT 9999 FEW025 SCT060 07/05 Q1005 NOSIG

EXPIRED METARs :
  • 170230Z VRB01KT 9999 FEW018 SCT080 07/06 Q1005 NOSIG
  • 170200Z VRB02KT 9999 FEW018 SCT080 07/06 Q1005 NOSIG
  • 170130Z 35004KT 9999 FEW018 SCT060 08/06 Q1004 NOSIG
  • 170100Z 34004KT 9999 FEW018 SCT070 08/06 Q1004 NOSIG
  • 170030Z 34005KT 300V020 9999 FEW018 SCT050 09/07 Q1004 NOSIG
  • 170000Z 35004KT 9999 FEW018 SCT050 09/07 Q1004 NOSIG

TAF TAF EINN
Valid from the 17 at 00:00 until the 18 at 00:00 UTC


162300Z 1700/1724 31009KT 9999 FEW010 SCT020
PROB30
TEMPO 1703/1706 3000 BR
PROB30
TEMPO 1711/1714 -SHRA FEW020CB



MET'MAP, your aeronautical weather chart ! - Copyright ORBIFLY December 2007 - Disclaimer

ORBIFLY MET'MAP TEAM :

Programming & Development : Alexandra Zaïnal
Concept & original design : Baudouin d'Aumeries
Assistance for programming : Marc-Olivier Méhu
Technical & hardware support : Manuel Goepfert

Contact : metmap@orbifly.com




SOURCES & CREDITS :

   NOAA